CYKF

Waterloo  Airport

Kitchener, Ontario, Canada

CYKF 230800Z AUTO 22008KT 9SM OVC032 M02/M06 A3012 RMK SLP216

Observed Flight Rules
Nov-23 @ 08:00 UTC (an hour ago)
 
Visual Flight Rules
Wind Visibility Clouds
220° at 8 knots 9 miles
  • Overcast at 3,200' AGL
Temperatures Readings
Current -2°C / 28°F
Dewpoint -6°C / 21°F
Humidity 74%
Altimeter 30.12" Hg
Pressure 1021.6 hPa
Elevation 317
Observed Flight Rules
Nov-23 @ 08:00 UTC
(an hour ago)
 
VFR
Wind Visibility
220° at 8 knots 9 miles
Clouds
  • Overcast at 3,200' AGL
Temperature Dewpoint
-2°C / 28°F -6°C / 21°F
Humidity Altimeter Pressure
74% 30.12" Hg 1021.6 hPa